Time;durP1;ratioP1;P1;durP2;ratioP2;P2;SDS_P1;SDS_P2;PMS_P1;PMS_P2;Temp;Humidity;BMP_temperature;BMP_pressure;BME280_temperature;BME280_humidity;BME280_pressure;Samples;Min_cycle;Max_cycle;Signal;HPM_P1;HPM_P2
2020/12/18 00:02:22;;;;;;;21.70;10.77;;;;;;;3.75;82.05;101340.88;4975788;28;20035;-74
2020/12/18 00:04:48;;;;;;;20.50;10.38;;;;;;;3.85;81.29;101337.22;4976706;28;20039;-73
2020/12/18 00:07:14;;;;;;;18.70;10.38;;;;;;;3.73;81.40;101338.28;4959460;28;20129;-74
2020/12/18 00:09:39;;;;;;;20.85;10.23;;;;;;;3.84;82.73;101361.88;4975675;28;20039;-75
2020/12/18 00:12:05;;;;;;;22.17;10.13;;;;;;;3.92;81.39;101359.97;4976246;28;20035;-73
2020/12/18 00:14:30;;;;;;;19.23;10.13;;;;;;;3.87;81.65;101360.97;4975168;28;20050;-73
2020/12/18 00:16:55;;;;;;;20.75;10.25;;;;;;;3.79;82.30;101347.88;4974947;28;20031;-73
2020/12/18 00:19:21;;;;;;;21.35;10.75;;;;;;;3.89;81.34;101360.03;4975252;28;20065;-73
2020/12/18 00:21:46;;;;;;;21.50;10.95;;;;;;;3.51;82.10;101309.59;4975032;28;20034;-76
2020/12/18 00:24:12;;;;;;;23.90;11.27;;;;;;;3.53;81.97;101323.63;4959164;28;20495;-73
2020/12/18 00:26:37;;;;;;;18.27;9.80;;;;;;;3.80;81.27;101373.38;4976709;28;20085;-74
2020/12/18 00:29:03;;;;;;;21.27;10.48;;;;;;;3.80;81.20;101359.31;4976472;28;20034;-73
2020/12/18 00:31:28;;;;;;;23.20;10.75;;;;;;;3.85;81.29;101360.97;4975052;28;20520;-75
2020/12/18 00:33:54;;;;;;;20.27;10.65;;;;;;;3.82;81.67;101373.34;4975345;28;20126;-74
2020/12/18 00:36:19;;;;;;;22.92;10.48;;;;;;;3.53;81.59;101329.78;4976192;28;20031;-74
2020/12/18 00:38:45;;;;;;;21.15;10.25;;;;;;;3.83;81.68;101375.09;4975068;28;20137;-74
2020/12/18 00:41:13;;;;;;;17.67;9.60;;;;;;;3.79;81.06;101371.63;4974785;28;20093;-75
2020/12/18 00:43:39;;;;;;;17.25;9.43;;;;;;;3.45;81.17;101331.66;4958570;28;20154;-74
2020/12/18 00:46:05;;;;;;;21.40;11.02;;;;;;;3.76;81.33;101383.97;4975923;28;20031;-75
2020/12/18 00:48:30;;;;;;;23.25;10.50;;;;;;;3.82;81.24;101383.91;4975117;28;20050;-74
2020/12/18 00:50:55;;;;;;;22.15;10.55;;;;;;;3.81;80.74;101380.38;4958604;28;20140;-75
2020/12/18 00:53:21;;;;;;;21.23;10.43;;;;;;;3.79;81.46;101368.13;4943060;28;20034;-74
2020/12/18 00:55:47;;;;;;;20.38;10.48;;;;;;;3.76;80.84;101373.41;4974459;28;20055;-81
2020/12/18 00:58:12;;;;;;;24.85;12.50;;;;;;;3.83;81.18;101386.50;4975701;28;20069;-72
2020/12/18 01:00:37;;;;;;;27.02;12.70;;;;;;;3.52;82.19;101351.78;4974679;28;20030;-73
2020/12/18 01:03:03;;;;;;;32.78;15.32;;;;;;;3.70;82.10;101374.41;4958020;28;20042;-72
2020/12/18 01:05:28;;;;;;;28.25;14.30;;;;;;;3.54;82.68;101367.56;4974305;28;20031;-73
2020/12/18 01:07:54;;;;;;;33.22;16.67;;;;;;;3.40;82.31;101344.91;4942153;28;20039;-73
2020/12/18 01:10:19;;;;;;;33.05;15.80;;;;;;;3.57;83.50;101388.63;4974260;28;20038;-73
2020/12/18 01:12:48;;;;;;;36.60;17.08;;;;;;;3.61;83.47;101390.34;4974475;28;20037;-74
2020/12/18 01:15:13;;;;;;;34.53;14.48;;;;;;;3.43;84.07;101389.69;4973986;28;20117;-73
2020/12/18 01:17:39;;;;;;;36.58;18.17;;;;;;;3.40;84.86;101395.03;4974251;28;20138;-74
2020/12/18 01:20:04;;;;;;;40.28;17.67;;;;;;;3.01;85.18;101329.59;4975048;28;20114;-73
2020/12/18 01:22:30;;;;;;;42.65;19.33;;;;;;;3.06;85.21;101330.41;4975469;28;20078;-73
2020/12/18 01:24:55;;;;;;;44.75;20.10;;;;;;;3.37;85.15;101381.84;4974941;28;20429;-73
2020/12/18 01:27:20;;;;;;;43.35;18.40;;;;;;;3.39;85.19;101385.38;4957837;28;20440;-73
2020/12/18 01:29:45;;;;;;;46.28;19.77;;;;;;;3.34;85.17;101365.22;4975097;28;20031;-73
2020/12/18 01:32:11;;;;;;;46.22;21.27;;;;;;;3.45;84.67;101385.28;4973688;28;20038;-75
2020/12/18 01:34:36;;;;;;;47.58;20.23;;;;;;;3.48;85.16;101383.50;4975104;28;20070;-73
2020/12/18 01:37:02;;;;;;;46.65;19.70;;;;;;;3.12;84.72;101338.25;4973561;28;20061;-74
2020/12/18 01:39:27;;;;;;;44.38;19.65;;;;;;;3.39;85.07;101385.38;4973944;28;20054;-72
2020/12/18 01:41:53;;;;;;;47.70;20.50;;;;;;;3.36;85.79;101390.66;4974970;28;20039;-74
2020/12/18 01:44:19;;;;;;;41.20;18.92;;;;;;;3.38;84.88;101388.91;4974782;28;20041;-73
2020/12/18 01:46:44;;;;;;;46.13;19.63;;;;;;;3.25;85.47;101374.09;4974910;28;20054;-74
2020/12/18 01:49:10;;;;;;;43.60;19.95;;;;;;;3.30;85.59;101390.75;4957123;28;20050;-73
2020/12/18 01:51:35;;;;;;;44.10;20.42;;;;;;;3.12;85.38;101354.06;4974929;28;20400;-74
2020/12/18 01:54:01;;;;;;;44.78;20.38;;;;;;;3.41;85.22;101398.53;4974461;28;20080;-74
2020/12/18 01:56:27;;;;;;;41.60;19.10;;;;;;;3.47;84.14;101398.44;4983665;28;20498;-74
2020/12/18 01:58:53;;;;;;;41.10;18.73;;;;;;;3.38;84.91;101396.81;4993694;28;20041;-75
2020/12/18 02:01:18;;;;;;;41.17;19.48;;;;;;;3.43;85.24;101397.63;4960602;28;20048;-73
2020/12/18 02:03:44;;;;;;;45.40;19.95;;;;;;;3.44;85.82;101388.81;4993840;28;20471;-74
2020/12/18 02:06:14;;;;;;;40.80;19.13;;;;;;;3.54;84.53;101384.28;4976464;28;20380;-74
2020/12/18 02:08:41;;;;;;;39.60;18.30;;;;;;;3.21;84.53;101353.94;4993567;28;20131;-74
2020/12/18 02:11:10;;;;;;;39.92;17.35;;;;;;;3.35;84.09;101369.59;4993577;28;20038;-74
2020/12/18 02:13:36;;;;;;;39.20;17.73;;;;;;;3.50;84.64;101402.81;4993938;28;20042;-74
2020/12/18 02:16:01;;;;;;;43.10;18.35;;;;;;;3.48;84.35;101388.78;4993564;28;20383;-74
2020/12/18 02:18:26;;;;;;;42.35;18.98;;;;;;;3.49;84.32;101380.84;4960274;28;20133;-74
2020/12/18 02:20:53;;;;;;;39.20;16.92;;;;;;;3.52;84.16;101391.34;4993850;28;20038;-74
2020/12/18 02:23:19;;;;;;;36.95;16.50;;;;;;;3.39;84.09;101395.91;4993613;28;20041;-73
2020/12/18 02:25:46;;;;;;;39.42;17.75;;;;;;;3.42;84.70;101401.16;4976313;28;20464;-73
2020/12/18 02:28:12;;;;;;;36.10;16.55;;;;;;;3.45;83.69;101401.09;4976389;28;20034;-74
2020/12/18 02:30:40;;;;;;;42.10;19.58;;;;;;;3.50;84.55;101400.19;5002776;28;20038;-72
2020/12/18 02:33:07;;;;;;;40.00;19.10;;;;;;;3.32;84.75;101373.16;4967492;28;20070;-71
2020/12/18 02:35:33;;;;;;;40.17;17.20;;;;;;;3.40;84.56;101392.38;4993351;28;20031;-74
2020/12/18 02:38:00;;;;;;;34.70;16.45;;;;;;;3.45;83.98;101411.66;4993369;28;20121;-74
2020/12/18 02:40:25;;;;;;;34.78;15.38;;;;;;;3.40;84.64;101399.44;4976206;28;20086;-74
2020/12/18 02:42:51;;;;;;;35.67;15.93;;;;;;;3.45;84.37;101405.50;4976297;28;20034;-73
2020/12/18 02:45:16;;;;;;;31.13;14.35;;;;;;;3.40;84.21;101405.56;4993505;28;20045;-73
2020/12/18 02:47:42;;;;;;;32.13;14.40;;;;;;;3.28;84.31;101392.53;4960495;28;20061;-73
2020/12/18 02:50:07;;;;;;;31.58;14.95;;;;;;;3.35;84.33;101393.31;4976024;28;20069;-73
2020/12/18 02:52:33;;;;;;;30.75;13.85;;;;;;;3.25;83.85;101371.47;4976048;28;20057;-73
2020/12/18 02:54:58;;;;;;;29.83;12.85;;;;;;;3.48;83.77;101404.63;4975868;28;20050;-73
2020/12/18 02:57:24;;;;;;;27.40;13.23;;;;;;;3.42;83.12;101389.72;4959930;28;20054;-73
2020/12/18 02:59:49;;;;;;;29.35;13.15;;;;;;;3.27;83.93;101377.59;4976350;28;20038;-72
2020/12/18 03:02:14;;;;;;;28.92;12.52;;;;;;;3.38;84.31;101399.44;4993466;28;20541;-72
2020/12/18 03:04:40;;;;;;;25.52;11.75;;;;;;;3.37;84.14;101402.09;4976125;28;20049;-72
2020/12/18 03:07:05;;;;;;;27.60;11.95;;;;;;;3.38;83.90;101399.44;4975841;28;20045;-73
2020/12/18 03:09:31;;;;;;;29.40;12.15;;;;;;;3.38;83.91;101399.44;4976170;28;20076;-73
2020/12/18 03:11:56;;;;;;;28.67;12.68;;;;;;;3.31;84.54;101387.22;4960066;28;20400;-81
2020/12/18 03:14:21;;;;;;;30.63;12.10;;;;;;;3.36;83.72;101395.94;4975991;28;20038;-73
2020/12/18 03:16:47;;;;;;;26.05;11.98;;;;;;;3.24;83.75;101356.53;4976013;28;20042;-73
2020/12/18 03:19:12;;;;;;;28.88;13.95;;;;;;;3.37;84.03;101387.13;4977290;28;20039;-72
2020/12/18 03:21:38;;;;;;;30.73;13.02;;;;;;;3.49;84.16;101390.53;4997215;28;20037;-73
2020/12/18 03:24:03;;;;;;;30.88;13.05;;;;;;;3.47;83.63;101393.16;4979039;28;20034;-74
2020/12/18 03:26:29;;;;;;;27.73;13.07;;;;;;;3.06;83.66;101338.31;4996755;28;20073;-74
2020/12/18 03:28:54;;;;;;;28.17;13.00;;;;;;;3.38;84.59;101388.91;4996846;28;20042;-74
2020/12/18 03:31:20;;;;;;;28.88;12.55;;;;;;;3.12;84.54;101344.38;4979528;28;20042;-74
2020/12/18 03:33:45;;;;;;;30.40;12.93;;;;;;;3.43;84.15;101394.09;4996839;28;20037;-74
2020/12/18 03:36:10;;;;;;;28.75;12.00;;;;;;;3.42;83.99;101393.22;4979031;28;20069;-74
2020/12/18 03:38:36;;;;;;;28.05;13.15;;;;;;;3.45;83.11;101385.28;4979488;28;20042;-73
2020/12/18 03:41:07;;;;;;;28.63;12.73;;;;;;;3.52;82.83;101387.84;4979100;28;20094;-73
2020/12/18 03:43:33;;;;;;;31.77;14.02;;;;;;;3.35;82.89;101361.66;4979487;28;20491;-74
2020/12/18 03:45:59;;;;;;;31.08;12.68;;;;;;;3.49;83.24;101390.53;4996621;28;20432;-79
2020/12/18 03:48:25;;;;;;;27.73;12.48;;;;;;;3.52;82.71;101414.22;4979424;28;20050;-75
2020/12/18 03:50:50;;;;;;;28.05;12.38;;;;;;;3.31;84.14;101405.69;4996404;28;20081;-75
2020/12/18 03:53:16;;;;;;;27.98;11.75;;;;;;;3.45;83.91;101416.06;4996593;28;20130;-75
2020/12/18 03:55:41;;;;;;;28.48;12.52;;;;;;;3.42;83.56;101411.69;4978971;28;20066;-73
2020/12/18 03:58:06;;;;;;;27.27;12.40;;;;;;;3.47;82.90;101408.13;4978934;28;20108;-73
2020/12/18 04:00:32;;;;;;;29.77;12.75;;;;;;;3.53;82.85;101418.59;4979299;28;20145;-74
2020/12/18 04:02:57;;;;;;;26.92;12.57;;;;;;;3.18;82.80;101364.50;4963374;28;20054;-74
2020/12/18 04:05:23;;;;;;;26.98;11.50;;;;;;;3.36;83.84;101400.34;4962981;28;20038;-73
2020/12/18 04:07:49;;;;;;;30.45;14.00;;;;;;;3.41;84.04;101402.03;4996105;28;20041;-75
2020/12/18 04:10:14;;;;;;;35.55;13.68;;;;;;;3.56;83.42;101418.56;4978427;28;20038;-75
2020/12/18 04:12:39;;;;;;;49.08;17.98;;;;;;;3.54;83.23;101412.44;4996080;28;20034;-75
2020/12/18 04:15:05;;;;;;;35.30;14.13;;;;;;;3.68;82.63;101413.13;4995650;28;20088;-76
2020/12/18 04:17:30;;;;;;;34.47;13.82;;;;;;;3.60;83.27;101422.91;4978578;28;20121;-75
2020/12/18 04:19:56;;;;;;;31.95;13.00;;;;;;;3.68;83.78;101423.69;4995953;28;20494;-75
2020/12/18 04:22:21;;;;;;;34.65;14.40;;;;;;;3.28;83.29;101358.25;4995736;28;20460;-76
2020/12/18 04:24:47;;;;;;;30.83;12.85;;;;;;;3.26;83.40;101361.78;4995884;28;20081;-76
2020/12/18 04:27:12;;;;;;;28.98;13.23;;;;;;;3.62;83.05;101423.75;4978160;28;20125;-74
2020/12/18 04:29:38;;;;;;;28.25;12.48;;;;;;;3.61;83.12;101428.16;4978195;28;20042;-76
2020/12/18 04:32:03;;;;;;;31.58;12.70;;;;;;;3.45;82.57;101384.41;4977307;28;20065;-82
2020/12/18 04:34:28;;;;;;;28.33;12.13;;;;;;;3.53;82.79;101415.97;4995942;28;20129;-75
2020/12/18 04:36:53;;;;;;;27.67;13.20;;;;;;;3.66;82.68;101436.00;4995623;28;20495;-76
2020/12/18 04:39:19;;;;;;;33.45;13.50;;;;;;;3.30;82.39;101374.94;4977723;28;20031;-74
2020/12/18 04:41:44;;;;;;;33.47;14.15;;;;;;;3.58;83.79;101428.22;4995833;28;20383;-75
2020/12/18 04:44:10;;;;;;;31.13;12.48;;;;;;;3.43;83.79;101408.16;4961996;28;20472;-75
2020/12/18 04:46:36;;;;;;;31.15;13.15;;;;;;;3.60;84.06;101426.41;4978266;28;20464;-75
2020/12/18 04:49:03;;;;;;;38.58;13.88;;;;;;;3.34;83.89;101376.63;4995367;28;20118;-75
2020/12/18 04:51:28;;;;;;;35.13;14.10;;;;;;;3.56;84.75;101434.38;4977497;28;20038;-76
2020/12/18 04:53:55;;;;;;;37.70;14.52;;;;;;;3.56;85.02;101435.25;4977628;28;20038;-76
2020/12/18 04:56:25;;;;;;;36.70;14.38;;;;;;;3.49;85.06;101430.97;4977513;28;20061;-76
2020/12/18 04:58:53;;;;;;;29.08;12.88;;;;;;;3.52;84.88;101437.97;4977852;28;20077;-76
2020/12/18 05:01:23;;;;;;;32.20;12.43;;;;;;;3.44;85.59;101444.19;4994810;28;20038;-76
2020/12/18 05:03:49;;;;;;;35.15;13.32;;;;;;;3.39;85.83;101435.47;4978358;28;20035;-76
2020/12/18 05:06:15;;;;;;;37.70;15.05;;;;;;;3.28;86.98;101440.00;4977218;28;20034;-75
2020/12/18 05:08:43;;;;;;;39.28;14.40;;;;;;;3.31;86.89;101431.19;4977336;28;20533;-73
2020/12/18 05:11:20;;;;;;;37.10;14.13;;;;;;;3.27;87.09;101438.22;4994795;28;20108;-73
2020/12/18 05:13:46;;;;;;;37.40;15.57;;;;;;;3.24;87.37;101433.00;4994826;28;20476;-73
2020/12/18 05:16:12;;;;;;;41.38;15.32;;;;;;;3.22;87.86;101439.19;4977189;28;20542;-74
2020/12/18 05:18:38;;;;;;;42.20;13.68;;;;;;;3.03;88.16;101430.63;4995006;28;20038;-74
2020/12/18 05:21:04;;;;;;;39.38;14.43;;;;;;;2.78;88.45;101391.31;4994832;28;20116;-74
2020/12/18 05:23:29;;;;;;;40.75;15.70;;;;;;;3.05;88.66;101436.72;4994488;28;20065;-74
2020/12/18 05:25:55;;;;;;;36.97;14.13;;;;;;;3.26;87.69;101452.31;4961063;28;20109;-73
2020/12/18 05:28:21;;;;;;;35.20;14.75;;;;;;;3.30;87.77;101440.88;4994116;28;20109;-74
2020/12/18 05:30:48;;;;;;;38.03;14.70;;;;;;;3.22;87.51;101442.72;4994427;28;20117;-75
2020/12/18 05:33:14;;;;;;;35.00;13.52;;;;;;;3.22;87.23;101437.44;4994377;28;20035;-75
2020/12/18 05:35:40;;;;;;;34.85;13.27;;;;;;;3.24;87.26;101443.56;4977215;28;20045;-75
2020/12/18 05:38:05;;;;;;;33.72;13.25;;;;;;;3.30;87.20;101451.41;4977270;28;20035;-75
2020/12/18 05:40:30;;;;;;;36.85;13.73;;;;;;;3.11;86.89;101410.31;4994518;28;20036;-74
2020/12/18 05:42:56;;;;;;;33.03;13.57;;;;;;;3.30;86.61;101448.78;4976954;28;20372;-75
2020/12/18 05:45:22;;;;;;;31.63;12.68;;;;;;;3.41;86.56;101453.91;4976770;28;20041;-72
2020/12/18 05:48:14;;;;;;;35.88;14.05;;;;;;;3.30;87.19;101454.03;4960504;28;20464;-73
2020/12/18 05:50:40;;;;;;;33.83;13.80;;;;;;;3.16;86.71;101435.72;4973851;28;20050;-73
2020/12/18 05:53:07;;;;;;;36.28;13.43;;;;;;;2.90;87.53;101411.44;4994452;28;20044;-73
2020/12/18 05:55:40;;;;;;;37.30;14.32;;;;;;;3.20;87.92;101473.50;4993761;28;20034;-73
2020/12/18 05:58:11;;;;;;;38.60;13.93;;;;;;;3.13;88.14;101471.81;4994705;28;20042;-74
2020/12/18 06:00:37;;;;;;;41.20;13.93;;;;;;;3.16;88.43;101477.91;4994219;28;20507;-75
2020/12/18 06:03:08;;;;;;;36.90;14.95;;;;;;;3.03;88.12;101443.78;4977106;28;20034;-73
2020/12/18 06:05:36;;;;;;;42.05;14.63;;;;;;;3.26;87.60;101483.97;4993838;28;20472;-74
2020/12/18 06:08:06;;;;;;;36.17;14.73;;;;;;;3.35;87.27;101481.22;4976210;28;20045;-73
2020/12/18 06:10:33;;;;;;;37.28;12.50;;;;;;;3.26;87.53;101483.97;4993360;28;20484;-73
2020/12/18 06:13:03;;;;;;;39.03;14.00;;;;;;;3.24;87.49;101491.03;4976387;28;20046;-73
2020/12/18 06:15:29;;;;;;;41.67;14.82;;;;;;;3.14;88.11;101473.56;4993426;28;20038;-73
2020/12/18 06:17:55;;;;;;;38.47;14.75;;;;;;;3.02;88.14;101457.88;4993929;28;20037;-73
2020/12/18 06:20:20;;;;;;;35.90;13.23;;;;;;;2.98;87.93;101450.84;4993749;28;20038;-73
2020/12/18 06:23:05;;;;;;;38.85;13.57;;;;;;;3.13;88.18;101487.63;4976438;28;20472;-72
2020/12/18 06:25:31;;;;;;;45.22;15.73;;;;;;;3.08;88.08;101477.09;4993210;28;20042;-72
2020/12/18 06:28:02;;;;;;;38.42;13.40;;;;;;;3.27;87.35;101496.25;4976192;28;20477;-71
2020/12/18 06:30:28;;;;;;;39.45;14.55;;;;;;;3.35;87.10;101504.97;4992919;28;20527;-72
2020/12/18 06:32:54;;;;;;;41.63;13.75;;;;;;;3.38;86.46;101504.09;4993407;28;20480;-72
2020/12/18 06:35:36;;;;;;;37.35;13.93;;;;;;;3.33;87.03;101516.44;4993096;28;20109;-74
2020/12/18 06:38:14;;;;;;;42.63;15.23;;;;;;;3.52;85.82;101514.47;4975950;28;20510;-72
2020/12/18 06:40:40;;;;;;;38.30;14.82;;;;;;;3.59;85.36;101518.78;4976329;28;20049;-72
2020/12/18 06:43:05;;;;;;;39.03;14.18;;;;;;;3.47;85.98;101511.00;4960096;28;20547;-74
2020/12/18 06:45:31;;;;;;;41.05;13.65;;;;;;;3.60;85.30;101520.53;4993173;28;20113;-77
2020/12/18 06:47:56;;;;;;;40.55;13.52;;;;;;;3.15;86.07;101464.75;4993596;28;20034;-73
2020/12/18 06:50:22;;;;;;;40.55;14.93;;;;;;;3.42;86.86;101525.13;4975577;28;20065;-73
2020/12/18 06:52:52;;;;;;;39.80;13.63;;;;;;;3.55;86.70;101525.84;4975920;28;20196;-73
2020/12/18 06:55:26;;;;;;;43.92;15.07;;;;;;;3.40;87.43;101524.28;4996693;28;20422;-74
2020/12/18 06:58:15;;;;;;;43.90;14.73;;;;;;;3.43;87.37;101532.13;4997808;28;20459;-72
2020/12/18 07:00:48;;;;;;;46.28;15.82;;;;;;;3.20;88.10;101517.44;4997507;28;20391;-73
2020/12/18 07:03:37;;;;;;;45.85;15.20;;;;;;;3.28;88.45;101540.22;4997660;28;20030;-71
2020/12/18 07:06:27;;;;;;;47.90;15.40;;;;;;;3.32;87.91;101533.16;4997418;28;20424;-72
2020/12/18 07:08:55;;;;;;;45.00;15.90;;;;;;;3.02;88.85;101507.94;4997189;28;20046;-72
2020/12/18 07:11:20;;;;;;;46.28;16.40;;;;;;;3.30;88.88;101538.44;4996876;28;20026;-71
2020/12/18 07:13:48;;;;;;;49.78;16.13;;;;;;;3.32;88.89;101535.78;4997294;28;20042;-72
2020/12/18 07:16:16;;;;;;;45.13;16.05;;;;;;;3.26;88.50;101523.50;4997382;28;20068;-72
2020/12/18 07:18:43;;;;;;;43.15;14.80;;;;;;;3.05;89.25;101518.44;4997011;28;20498;-72
2020/12/18 07:21:09;;;;;;;44.30;15.68;;;;;;;2.99;89.88;101534.31;4997287;28;20046;-74
2020/12/18 07:23:39;;;;;;;46.85;15.75;;;;;;;3.02;89.68;101527.28;4996670;28;20061;-76
2020/12/18 07:26:07;;;;;;;48.95;16.05;;;;;;;3.01;90.09;101527.28;4997013;28;20034;-74
2020/12/18 07:28:37;;;;;;;43.33;16.08;;;;;;;2.83;90.00;101492.28;4996797;28;20045;-75
2020/12/18 07:31:04;;;;;;;50.22;17.08;;;;;;;3.14;89.51;101531.56;4997102;28;20038;-75
2020/12/18 07:33:29;;;;;;;45.22;17.15;;;;;;;3.12;89.82;101528.06;4997121;28;20026;-74
2020/12/18 07:35:56;;;;;;;50.35;16.77;;;;;;;3.01;90.05;101509.72;4979742;28;20042;-74
2020/12/18 07:38:32;;;;;;;47.63;18.33;;;;;;;3.21;89.50;101533.25;4996446;28;20034;-72
2020/12/18 07:41:03;;;;;;;54.60;17.92;;;;;;;3.11;88.79;101505.22;4996981;28;20030;-75
2020/12/18 07:43:31;;;;;;;55.58;17.85;;;;;;;3.29;88.49;101525.28;4996503;28;20027;-73
2020/12/18 07:45:59;;;;;;;48.53;18.35;;;;;;;3.26;88.45;101512.97;4996704;28;20034;-72
2020/12/18 07:48:29;;;;;;;48.47;16.88;;;;;;;3.35;88.54;101528.69;4979069;28;20045;-72
2020/12/18 07:51:18;;;;;;;49.78;17.10;;;;;;;3.19;88.36;101503.41;4996471;28;20426;-71
2020/12/18 07:53:45;;;;;;;42.70;15.02;;;;;;;2.97;88.75;101499.19;4996605;28;20038;-72
2020/12/18 07:56:16;;;;;;;44.47;15.63;;;;;;;3.24;89.11;101543.75;4978941;28;20482;-72
2020/12/18 07:58:53;;;;;;;42.20;16.67;;;;;;;2.97;89.44;101507.97;4996210;28;20038;-72
2020/12/18 08:01:26;;;;;;;40.75;14.93;;;;;;;2.95;89.21;101519.44;4978590;28;20399;-80
2020/12/18 08:03:57;;;;;;;47.65;17.05;;;;;;;3.14;90.03;101550.88;4996332;28;20482;-72
2020/12/18 08:06:32;;;;;;;45.10;16.77;;;;;;;3.16;89.61;101545.59;4994832;28;20054;-73
2020/12/18 08:09:09;;;;;;;43.00;16.40;;;;;;;3.07;89.97;101551.81;4979201;28;20037;-71
2020/12/18 08:11:36;;;;;;;41.25;16.65;;;;;;;3.05;90.17;101547.44;4995865;28;20030;-72
2020/12/18 08:14:05;;;;;;;43.83;15.55;;;;;;;3.10;90.32;101561.47;4995283;28;20125;-73
2020/12/18 08:16:33;;;;;;;44.47;15.27;;;;;;;3.15;90.16;101562.31;4995939;28;20445;-71
2020/12/18 08:19:05;;;;;;;42.30;15.40;;;;;;;3.06;90.50;101565.88;4996050;28;20042;-72
2020/12/18 08:21:42;;;;;;;49.28;17.58;;;;;;;3.18;89.61;101559.63;4995720;28;20041;-70
2020/12/18 08:24:15;;;;;;;47.30;16.35;;;;;;;3.13;89.86;101548.25;4995784;28;20030;-72
2020/12/18 08:26:55;;;;;;;45.35;15.80;;;;;;;3.08;89.80;101552.69;4995603;28;20035;-72
2020/12/18 08:29:22;;;;;;;59.38;20.38;;;;;;;3.00;90.48;101554.53;4995673;28;20480;-80
2020/12/18 08:31:53;;;;;;;46.50;16.48;;;;;;;2.94;90.93;101530.84;4978568;28;20038;-72
2020/12/18 08:34:24;;;;;;;49.28;16.95;;;;;;;3.29;90.04;101573.63;4995649;28;20110;-71
2020/12/18 08:36:50;;;;;;;43.67;17.08;;;;;;;3.17;89.48;101557.88;4995844;28;20062;-72
2020/12/18 08:39:17;;;;;;;47.72;16.35;;;;;;;3.26;89.64;101573.63;4978398;28;20112;-72
2020/12/18 08:41:44;;;;;;;45.67;16.13;;;;;;;3.14;90.54;101571.97;4995061;28;20514;-71
2020/12/18 08:44:12;;;;;;;51.10;17.88;;;;;;;3.13;91.13;101577.25;4995433;28;20026;-72
2020/12/18 08:46:38;;;;;;;45.17;17.17;;;;;;;3.17;90.45;101573.69;4995452;28;20391;-70
2020/12/18 08:49:27;;;;;;;45.70;15.77;;;;;;;3.16;90.66;101566.69;4995809;28;20042;-71
2020/12/18 08:52:01;;;;;;;47.10;16.33;;;;;;;3.23;90.00;101570.16;4995442;28;20042;-72
2020/12/18 08:54:34;;;;;;;53.05;16.92;;;;;;;3.25;90.63;101579.78;4978927;28;20396;-72
2020/12/18 08:57:14;;;;;;;46.10;17.30;;;;;;;3.25;90.55;101581.56;4978079;28;20112;-73
2020/12/18 08:59:53;;;;;;;45.95;16.00;;;;;;;3.22;89.88;101547.31;4995018;28;20124;-72
2020/12/18 09:02:18;;;;;;;45.53;17.05;;;;;;;3.17;89.89;101539.41;4995530;28;20129;-71
2020/12/18 09:04:44;;;;;;;39.78;15.57;;;;;;;3.45;88.44;101574.31;4977610;28;20447;-73
2020/12/18 09:07:09;;;;;;;43.13;15.02;;;;;;;3.25;89.42;101539.34;4995064;28;20487;-72
2020/12/18 09:09:35;;;;;;;44.28;15.15;;;;;;;3.60;88.27;101575.94;4994836;28;20109;-72
2020/12/18 09:12:15;;;;;;;40.97;14.98;;;;;;;3.50;87.98;101566.38;4995248;28;20037;-73
2020/12/18 09:14:41;;;;;;;43.53;15.43;;;;;;;3.66;87.97;101578.50;4977593;28;20045;-72
2020/12/18 09:17:06;;;;;;;39.75;14.98;;;;;;;3.54;88.34;101582.16;4961390;28;20042;-71
2020/12/18 09:19:33;;;;;;;43.00;15.15;;;;;;;3.52;88.46;101583.94;4994535;28;20456;-72
2020/12/18 09:22:05;;;;;;;43.65;15.65;;;;;;;3.47;88.34;101569.03;4994938;28;20033;-71
2020/12/18 09:24:30;;;;;;;38.03;12.65;;;;;;;3.33;88.55;101575.31;4994562;28;20034;-73
2020/12/18 09:27:12;;;;;;;40.35;14.82;;;;;;;3.34;89.03;101586.75;4994911;28;20515;-72
2020/12/18 09:29:38;;;;;;;37.47;14.30;;;;;;;3.11;89.36;101552.69;4994633;28;20034;-71
2020/12/18 09:32:07;;;;;;;39.13;14.35;;;;;;;3.43;88.75;101586.66;4961406;28;20073;-72
2020/12/18 09:34:33;;;;;;;42.22;14.38;;;;;;;3.42;88.47;101588.44;4977003;28;20042;-71
2020/12/18 09:37:09;;;;;;;37.00;13.25;;;;;;;3.48;88.00;101589.28;4994564;28;20038;-72
2020/12/18 09:39:35;;;;;;;34.70;13.57;;;;;;;3.56;87.31;101587.41;4994440;28;20093;-72
2020/12/18 09:42:00;;;;;;;36.10;13.13;;;;;;;3.57;86.32;101583.88;4995057;28;20034;-72
2020/12/18 09:44:25;;;;;;;37.35;13.07;;;;;;;3.66;85.95;101586.41;4976942;28;20042;-80
2020/12/18 09:46:51;;;;;;;35.03;13.77;;;;;;;3.53;85.37;101546.09;4977325;28;20372;-70
2020/12/18 09:49:16;;;;;;;34.03;13.55;;;;;;;3.44;86.05;101552.34;4994242;28;20048;-71
2020/12/18 09:51:46;;;;;;;38.53;14.13;;;;;;;3.58;85.99;101583.00;4993854;28;20046;-71
2020/12/18 09:54:11;;;;;;;36.03;13.60;;;;;;;3.59;86.74;101582.13;4994403;28;20529;-72
2020/12/18 09:56:36;;;;;;;35.35;14.68;;;;;;;3.50;87.30;101567.25;4993944;28;20144;-71
2020/12/18 09:59:02;;;;;;;35.58;14.55;;;;;;;3.52;87.03;101567.22;4994244;28;20096;-72
2020/12/18 10:01:27;;;;;;;35.83;12.23;;;;;;;3.59;87.08;101582.13;4976802;28;20115;-74
2020/12/18 10:03:53;;;;;;;34.17;13.15;;;;;;;3.31;87.45;101544.59;4993987;28;20037;-72
2020/12/18 10:06:25;;;;;;;35.10;13.18;;;;;;;3.50;86.49;101566.38;4994297;28;20464;-72
2020/12/18 10:08:50;;;;;;;37.33;13.68;;;;;;;3.50;86.27;101563.75;4993938;28;20026;-71
2020/12/18 10:11:17;;;;;;;33.55;12.98;;;;;;;3.35;87.22;101573.53;4976779;28;20038;-71
2020/12/18 10:13:43;;;;;;;35.55;12.80;;;;;;;3.06;88.16;101546.56;4993866;28;20057;-72
2020/12/18 10:16:08;;;;;;;38.80;14.52;;;;;;;3.18;88.80;101591.28;4994195;28;20038;-71
2020/12/18 10:18:33;;;;;;;37.08;14.43;;;;;;;2.99;88.38;101529.03;4993860;28;20066;-71
2020/12/18 10:21:03;;;;;;;37.85;14.65;;;;;;;3.44;86.44;101568.19;4976210;28;20039;-71
2020/12/18 10:23:29;;;;;;;38.47;13.43;;;;;;;3.48;86.43;101578.72;4993894;28;20129;-81
2020/12/18 10:25:54;;;;;;;37.95;14.20;;;;;;;3.51;86.71;101583.94;4976484;28;20096;-71
2020/12/18 10:28:19;;;;;;;39.20;15.07;;;;;;;3.22;86.81;101531.50;4975910;28;20030;-72
2020/12/18 10:30:45;;;;;;;37.42;13.98;;;;;;;3.35;86.82;101548.94;4993775;28;20065;-72
2020/12/18 10:33:10;;;;;;;33.40;13.82;;;;;;;3.41;87.39;101568.22;4993961;28;20065;-71
2020/12/18 10:35:35;;;;;;;36.35;14.15;;;;;;;3.45;87.63;101585.75;4993372;28;20089;-71
2020/12/18 10:38:01;;;;;;;37.33;14.45;;;;;;;3.44;87.22;101570.81;4993745;28;20034;-71
2020/12/18 10:40:27;;;;;;;35.40;14.43;;;;;;;3.48;87.15;101584.00;4993820;28;20353;-71
2020/12/18 10:42:53;;;;;;;43.08;15.57;;;;;;;3.51;87.13;101583.94;4993474;28;20126;-72
2020/12/18 10:45:18;;;;;;;34.25;12.20;;;;;;;3.74;85.18;101584.56;4993775;28;20038;-71
2020/12/18 10:47:43;;;;;;;34.80;14.00;;;;;;;3.76;84.99;101585.41;4975864;28;20057;-73
2020/12/18 10:50:09;;;;;;;36.05;14.30;;;;;;;3.64;85.67;101580.28;4993482;28;20482;-72
2020/12/18 10:52:34;;;;;;;39.22;14.30;;;;;;;3.39;86.17;101540.13;4976033;28;20538;-72
2020/12/18 10:54:59;;;;;;;36.95;15.15;;;;;;;3.53;86.77;101568.97;4993884;28;20034;-71
2020/12/18 10:57:25;;;;;;;39.38;15.20;;;;;;;3.58;87.07;101568.06;4993361;28;20070;-71
2020/12/18 10:59:50;;;;;;;37.47;15.10;;;;;;;3.34;87.11;101529.59;4993176;28;20035;-72
2020/12/18 11:02:16;;;;;;;39.35;15.30;;;;;;;3.57;87.39;101562.75;4993344;28;20038;-72
2020/12/18 11:04:41;;;;;;;42.05;15.43;;;;;;;3.51;87.12;101558.44;4975743;28;20438;-72
2020/12/18 11:07:06;;;;;;;39.20;14.18;;;;;;;3.41;87.66;101551.50;4976003;28;20042;-72
2020/12/18 11:09:32;;;;;;;39.72;14.80;;;;;;;3.46;87.53;101539.13;4993281;28;20072;-78
2020/12/18 11:11:57;;;;;;;38.88;15.57;;;;;;;3.55;86.11;101554.88;4993415;28;20027;-72
2020/12/18 11:14:23;;;;;;;42.22;14.98;;;;;;;3.56;87.05;101556.63;4976059;28;20439;-72
2020/12/18 11:16:49;;;;;;;37.95;15.02;;;;;;;3.47;86.81;101535.59;4993056;28;20035;-72
2020/12/18 11:19:14;;;;;;;41.15;15.80;;;;;;;3.58;86.82;101548.72;4992977;28;20161;-72